createdAt,value
2023-05-13T00:02:20.201Z,10.70
2023-05-13T00:04:46.783Z,10.70
2023-05-13T00:07:13.400Z,10.70
2023-05-13T00:09:40.074Z,10.70
2023-05-13T00:12:07.081Z,10.70
2023-05-13T00:14:33.700Z,10.70
2023-05-13T00:17:02.115Z,10.60
2023-05-13T00:19:28.993Z,10.60
2023-05-13T00:21:55.584Z,10.60
2023-05-13T00:24:22.220Z,10.60
2023-05-13T00:26:48.830Z,10.60
2023-05-13T00:29:15.930Z,10.50
2023-05-13T00:31:42.597Z,10.50
2023-05-13T00:34:09.340Z,10.40
2023-05-13T00:36:35.925Z,10.50
2023-05-13T00:39:03.707Z,10.50
2023-05-13T00:41:30.363Z,10.50
2023-05-13T00:43:57.003Z,10.50
2023-05-13T00:46:23.708Z,10.40
2023-05-13T00:48:50.377Z,10.40
2023-05-13T00:51:16.994Z,10.40
2023-05-13T00:53:43.843Z,10.40
2023-05-13T00:56:10.502Z,10.50
2023-05-13T00:58:37.104Z,10.40
2023-05-13T01:01:03.693Z,10.40
2023-05-13T01:03:30.690Z,10.40
2023-05-13T01:05:57.324Z,10.40
2023-05-13T01:08:23.891Z,10.40
2023-05-13T01:10:51.248Z,10.40
2023-05-13T01:13:17.852Z,10.40
2023-05-13T01:15:44.418Z,10.40
2023-05-13T01:18:11.299Z,10.30
2023-05-13T01:20:37.935Z,10.30
2023-05-13T01:23:06.196Z,10.30
2023-05-13T01:25:32.838Z,10.30
2023-05-13T01:28:01.098Z,10.20
2023-05-13T01:30:27.733Z,10.20
2023-05-13T01:32:54.386Z,10.20
2023-05-13T01:35:21.045Z,10.20
2023-05-13T01:37:48.878Z,10.20
2023-05-13T01:40:31.205Z,10.20
2023-05-13T01:43:02.481Z,10.30
2023-05-13T01:45:29.891Z,10.30
2023-05-13T01:47:57.070Z,10.40
2023-05-13T01:50:25.234Z,10.40
2023-05-13T01:52:52.062Z,10.40
2023-05-13T01:55:18.875Z,10.40
2023-05-13T01:57:47.107Z,10.40
2023-05-13T02:00:14.182Z,10.40
2023-05-13T02:02:43.831Z,10.30
2023-05-13T02:05:10.587Z,10.30
2023-05-13T02:07:38.308Z,10.30
2023-05-13T02:10:04.944Z,10.20
2023-05-13T02:12:32.430Z,10.20
2023-05-13T02:14:59.135Z,10.20
2023-05-13T02:17:25.968Z,10.20
2023-05-13T02:19:53.450Z,10.20
2023-05-13T02:22:20.089Z,10.20
2023-05-13T02:24:46.840Z,10.20
2023-05-13T02:27:16.175Z,10.10
2023-05-13T02:29:42.838Z,10.10
2023-05-13T02:32:09.827Z,10.20
2023-05-13T02:34:36.711Z,10.20
2023-05-13T02:37:03.806Z,10.20
2023-05-13T02:39:31.150Z,10.20
2023-05-13T02:41:59.831Z,10.20
2023-05-13T02:44:31.622Z,10.20
2023-05-13T02:46:58.320Z,10.30
2023-05-13T02:49:25.130Z,10.20
2023-05-13T02:51:51.793Z,10.20
2023-05-13T02:54:23.279Z,10.20
2023-05-13T02:56:49.929Z,10.20
2023-05-13T02:59:16.532Z,10.20
2023-05-13T03:01:43.378Z,10.20
2023-05-13T03:04:10.083Z,10.20
2023-05-13T03:06:36.729Z,10.20
2023-05-13T03:09:03.480Z,10.20
2023-05-13T03:11:30.441Z,10.20
2023-05-13T03:13:58.702Z,10.20
2023-05-13T03:16:26.064Z,10.20
2023-05-13T03:18:52.840Z,10.20
2023-05-13T03:21:19.654Z,10.20
2023-05-13T03:23:46.680Z,10.10
2023-05-13T03:26:13.570Z,10.10
2023-05-13T03:28:40.205Z,10.10
2023-05-13T03:31:07.063Z,10.20
2023-05-13T03:33:37.697Z,10.20
2023-05-13T03:36:04.508Z,10.20
2023-05-13T03:38:32.039Z,10.10
2023-05-13T03:40:59.051Z,10.20
2023-05-13T03:43:26.022Z,10.20
2023-05-13T03:45:57.650Z,10.20
2023-05-13T03:48:24.395Z,10.10
2023-05-13T03:50:53.033Z,10.10
2023-05-13T03:53:20.202Z,10.10
2023-05-13T03:55:48.182Z,10.10
2023-05-13T03:58:14.941Z,10.00
2023-05-13T04:00:41.723Z,10.00
2023-05-13T04:03:08.489Z,10.00
2023-05-13T04:05:35.336Z,10.10
2023-05-13T04:08:02.008Z,10.10
2023-05-13T04:10:28.650Z,10.10
2023-05-13T04:12:56.735Z,10.10
2023-05-13T04:15:23.463Z,10.10
2023-05-13T04:17:50.205Z,10.10
2023-05-13T04:20:16.894Z,10.10
2023-05-13T04:22:43.676Z,10.10
2023-05-13T04:25:10.279Z,10.10
2023-05-13T04:27:36.912Z,10.10
2023-05-13T04:30:18.374Z,10.10
2023-05-13T04:32:46.592Z,10.10
2023-05-13T04:35:14.164Z,10.00
2023-05-13T04:37:43.634Z,10.00
2023-05-13T04:40:13.597Z,9.90
2023-05-13T04:42:40.340Z,9.90
2023-05-13T04:45:07.152Z,10.00
2023-05-13T04:47:38.209Z,10.00
2023-05-13T04:50:05.665Z,10.00
2023-05-13T04:52:32.942Z,10.00
2023-05-13T04:54:59.725Z,10.00
2023-05-13T04:57:27.691Z,10.00
2023-05-13T04:59:54.339Z,10.00
2023-05-13T05:02:20.964Z,10.00
2023-05-13T05:04:49.341Z,10.10
2023-05-13T05:07:16.273Z,10.10
2023-05-13T05:09:42.898Z,10.10
2023-05-13T05:12:10.014Z,10.10
2023-05-13T05:14:40.009Z,10.10
2023-05-13T05:17:06.702Z,10.00
2023-05-13T05:19:33.614Z,10.00
2023-05-13T05:22:00.643Z,10.00
2023-05-13T05:24:27.283Z,10.00
2023-05-13T05:26:53.857Z,10.00
2023-05-13T05:29:21.003Z,10.00
2023-05-13T05:31:47.669Z,9.90
2023-05-13T05:34:14.702Z,9.90
2023-05-13T05:36:42.883Z,10.00
2023-05-13T05:39:10.967Z,10.00
2023-05-13T05:41:37.587Z,10.00
2023-05-13T05:44:04.279Z,10.10
2023-05-13T05:46:32.631Z,10.10
2023-05-13T05:49:00.806Z,10.10
2023-05-13T05:51:27.410Z,10.10
2023-05-13T05:53:54.170Z,10.10
2023-05-13T05:56:21.235Z,10.10
2023-05-13T05:58:47.878Z,10.10
2023-05-13T06:01:16.096Z,10.10
2023-05-13T06:03:42.956Z,10.10
2023-05-13T06:06:09.668Z,10.10
2023-05-13T06:08:36.286Z,10.10
2023-05-13T06:11:03.042Z,10.20
2023-05-13T06:13:29.971Z,10.20
2023-05-13T06:15:56.796Z,10.20
2023-05-13T06:18:23.534Z,10.20
2023-05-13T06:20:50.229Z,10.30
2023-05-13T06:23:18.496Z,10.30
2023-05-13T06:25:45.313Z,10.40
2023-05-13T06:28:12.240Z,10.40
2023-05-13T06:30:38.824Z,10.30
2023-05-13T06:33:05.598Z,10.40
2023-05-13T06:35:32.220Z,10.30
2023-05-13T06:38:01.973Z,10.20
2023-05-13T06:40:29.101Z,10.20
2023-05-13T06:42:56.194Z,10.30
2023-05-13T06:45:28.965Z,10.30
2023-05-13T06:47:56.365Z,10.30
2023-05-13T06:50:23.140Z,10.30
2023-05-13T06:52:50.063Z,10.40
2023-05-13T06:55:18.749Z,10.40
2023-05-13T06:57:47.175Z,10.40
2023-05-13T07:00:13.839Z,10.40
2023-05-13T07:02:40.501Z,10.40
2023-05-13T07:05:08.172Z,10.40
2023-05-13T07:07:35.904Z,10.40
2023-05-13T07:10:02.466Z,10.40
2023-05-13T07:12:29.097Z,10.40
2023-05-13T07:14:55.990Z,10.50
2023-05-13T07:17:22.799Z,10.50
2023-05-13T07:19:49.476Z,10.50
2023-05-13T07:22:16.034Z,10.60
2023-05-13T07:24:42.627Z,10.60
2023-05-13T07:27:09.328Z,10.70
2023-05-13T07:29:35.934Z,10.80
2023-05-13T07:32:02.532Z,10.80
2023-05-13T07:34:29.112Z,10.80
2023-05-13T07:36:55.755Z,10.70
2023-05-13T07:39:22.529Z,10.70
2023-05-13T07:41:49.251Z,10.70
2023-05-13T07:44:15.832Z,10.80
2023-05-13T07:46:42.593Z,10.80
2023-05-13T07:49:09.215Z,10.80
2023-05-13T07:51:35.821Z,10.90
2023-05-13T07:54:02.392Z,11.00
2023-05-13T07:56:28.989Z,11.00
2023-05-13T07:58:55.614Z,11.00
2023-05-13T08:01:22.235Z,11.00
2023-05-13T08:03:48.908Z,11.00
2023-05-13T08:06:15.641Z,11.10
2023-05-13T08:08:42.217Z,11.00
2023-05-13T08:11:08.850Z,11.10
2023-05-13T08:13:35.478Z,11.00
2023-05-13T08:16:03.403Z,11.00
2023-05-13T08:18:30.195Z,11.00
2023-05-13T08:20:56.842Z,11.00
2023-05-13T08:23:40.403Z,11.00
2023-05-13T08:26:11.814Z,11.10
2023-05-13T08:28:38.524Z,11.20
2023-05-13T08:31:05.108Z,11.20
2023-05-13T08:33:31.752Z,11.20
2023-05-13T08:35:58.328Z,11.20
2023-05-13T08:38:24.958Z,11.20
2023-05-13T08:40:51.650Z,11.30
2023-05-13T08:43:18.229Z,11.30
2023-05-13T08:45:44.857Z,11.30
2023-05-13T08:48:11.479Z,11.40
2023-05-13T08:50:38.123Z,11.50
2023-05-13T08:53:04.805Z,11.60
2023-05-13T08:55:31.452Z,11.50
2023-05-13T08:57:58.095Z,11.60
2023-05-13T09:00:24.753Z,11.70
2023-05-13T09:02:51.506Z,11.80
2023-05-13T09:05:18.221Z,11.80
2023-05-13T09:07:45.908Z,11.80
2023-05-13T09:10:12.521Z,12.00
2023-05-13T09:12:39.095Z,11.90
2023-05-13T09:15:05.821Z,12.10
2023-05-13T09:17:32.846Z,12.10
2023-05-13T09:19:59.533Z,12.10
2023-05-13T09:22:26.283Z,12.10
2023-05-13T09:24:52.851Z,12.20
2023-05-13T09:27:19.463Z,12.30
2023-05-13T09:29:49.637Z,12.30
2023-05-13T09:32:16.415Z,12.30
2023-05-13T09:34:43.895Z,12.30
2023-05-13T09:37:10.532Z,12.40
2023-05-13T09:39:37.136Z,12.40
2023-05-13T09:42:05.429Z,12.70
2023-05-13T09:44:32.274Z,12.90
2023-05-13T09:46:58.959Z,12.90
2023-05-13T09:49:26.017Z,12.80
2023-05-13T09:51:52.710Z,13.00
2023-05-13T09:54:19.478Z,13.00
2023-05-13T09:56:46.137Z,13.00
2023-05-13T09:59:12.849Z,13.20
2023-05-13T10:01:39.654Z,13.40
2023-05-13T10:04:06.473Z,13.30
2023-05-13T10:06:34.108Z,13.50
2023-05-13T10:09:01.645Z,13.50
2023-05-13T10:11:28.376Z,13.70
2023-05-13T10:13:55.632Z,13.70
2023-05-13T10:16:24.951Z,13.70
2023-05-13T10:18:51.745Z,13.70
2023-05-13T10:21:18.378Z,13.70
2023-05-13T10:23:44.978Z,13.60
2023-05-13T10:26:11.847Z,13.50
2023-05-13T10:28:38.475Z,13.50
2023-05-13T10:31:05.058Z,13.50
2023-05-13T10:33:31.649Z,13.80
2023-05-13T10:35:58.512Z,13.90
2023-05-13T10:38:25.072Z,13.90
2023-05-13T10:40:51.736Z,13.80
2023-05-13T10:43:18.345Z,14.00
2023-05-13T10:46:03.661Z,14.20
2023-05-13T10:48:31.373Z,14.50
2023-05-13T10:50:58.148Z,14.50
2023-05-13T10:53:24.777Z,14.60
2023-05-13T10:55:51.883Z,14.70
2023-05-13T10:58:21.311Z,14.70
2023-05-13T11:00:47.962Z,14.80
2023-05-13T11:03:14.742Z,14.70
2023-05-13T11:05:41.565Z,14.70
2023-05-13T11:08:08.225Z,14.70
2023-05-13T11:10:34.841Z,14.70
2023-05-13T11:13:01.431Z,14.40
2023-05-13T11:15:30.985Z,14.60
2023-05-13T11:17:57.617Z,14.90
2023-05-13T11:20:24.265Z,15.20
2023-05-13T11:22:50.962Z,15.30
2023-05-13T11:25:17.553Z,15.40
2023-05-13T11:28:04.107Z,15.30
2023-05-13T11:30:30.858Z,15.10
2023-05-13T11:32:58.324Z,15.20
2023-05-13T11:35:25.246Z,15.50
2023-05-13T11:37:51.874Z,15.60
2023-05-13T11:40:18.457Z,15.80
2023-05-13T11:42:45.046Z,15.90
2023-05-13T11:45:11.677Z,16.00
2023-05-13T11:47:39.625Z,16.00
2023-05-13T11:50:06.240Z,16.20
2023-05-13T11:52:33.755Z,16.40
2023-05-13T11:55:00.393Z,16.20
2023-05-13T11:57:27.191Z,16.10
2023-05-13T11:59:53.807Z,16.40
2023-05-13T12:02:20.461Z,16.60
2023-05-13T12:04:47.189Z,16.70
2023-05-13T12:07:13.828Z,16.70
2023-05-13T12:09:40.483Z,16.90
2023-05-13T12:12:07.141Z,17.00
2023-05-13T12:14:33.725Z,17.40
2023-05-13T12:17:00.349Z,17.50
2023-05-13T12:19:26.961Z,17.40
2023-05-13T12:21:53.540Z,17.50
2023-05-13T12:24:20.153Z,17.60
2023-05-13T12:26:46.772Z,17.80
2023-05-13T12:29:13.497Z,18.30
2023-05-13T12:31:40.107Z,18.40
2023-05-13T12:34:06.768Z,18.20
2023-05-13T12:36:35.918Z,18.50
2023-05-13T12:39:02.647Z,18.50
2023-05-13T12:41:29.285Z,18.20
2023-05-13T12:43:56.134Z,18.00
2023-05-13T12:46:22.975Z,17.90
2023-05-13T12:48:49.725Z,17.70
2023-05-13T12:51:16.341Z,17.30
2023-05-13T12:53:43.055Z,17.40
2023-05-13T12:56:09.831Z,17.90
2023-05-13T12:58:36.502Z,18.10
2023-05-13T13:01:03.200Z,17.80
2023-05-13T13:03:29.945Z,18.10
2023-05-13T13:05:58.008Z,18.30
2023-05-13T13:08:24.608Z,18.30
2023-05-13T13:10:51.242Z,18.70
2023-05-13T13:13:17.869Z,18.70
2023-05-13T13:15:44.731Z,19.40
2023-05-13T13:18:11.379Z,19.70
2023-05-13T13:20:38.017Z,20.10
2023-05-13T13:23:04.667Z,19.60
2023-05-13T13:25:31.433Z,19.10
2023-05-13T13:27:58.043Z,19.30
2023-05-13T13:30:24.693Z,19.30
2023-05-13T13:32:51.442Z,19.30
2023-05-13T13:35:18.063Z,19.40
2023-05-13T13:37:44.733Z,19.00
2023-05-13T13:40:11.314Z,19.20
2023-05-13T13:42:43.931Z,19.30
2023-05-13T13:45:11.679Z,19.50
2023-05-13T13:47:38.572Z,19.50
2023-05-13T13:50:05.600Z,19.40
2023-05-13T13:52:32.287Z,18.90
2023-05-13T13:54:58.925Z,18.70
2023-05-13T13:57:25.735Z,18.10
2023-05-13T13:59:52.409Z,18.50
2023-05-13T14:02:19.015Z,18.70
2023-05-13T14:04:45.606Z,18.60
2023-05-13T14:07:12.515Z,18.90
2023-05-13T14:09:39.165Z,19.30
2023-05-13T14:12:05.746Z,19.80
2023-05-13T14:14:32.371Z,19.90
2023-05-13T14:17:00.278Z,19.50
2023-05-13T14:19:26.903Z,18.70
2023-05-13T14:21:56.604Z,18.30
2023-05-13T14:24:23.324Z,18.10
2023-05-13T14:27:10.132Z,18.10
2023-05-13T14:29:36.727Z,18.10
2023-05-13T14:32:03.808Z,18.40
2023-05-13T14:34:30.474Z,18.60
2023-05-13T14:36:57.275Z,18.70
2023-05-13T14:39:24.597Z,18.00
2023-05-13T14:41:51.314Z,17.60
2023-05-13T14:44:17.918Z,17.80
2023-05-13T14:46:46.823Z,18.10
2023-05-13T14:49:13.468Z,18.10
2023-05-13T14:51:40.120Z,18.20
2023-05-13T14:54:06.749Z,18.40
2023-05-13T14:56:33.335Z,18.60
2023-05-13T14:59:01.667Z,18.20
2023-05-13T15:01:28.419Z,18.40
2023-05-13T15:03:55.284Z,18.60
2023-05-13T15:06:23.282Z,18.70
2023-05-13T15:08:49.918Z,18.80
2023-05-13T15:11:16.703Z,18.80
2023-05-13T15:13:43.289Z,18.60
2023-05-13T15:16:10.368Z,18.60
2023-05-13T15:18:37.016Z,18.50
2023-05-13T15:21:03.682Z,18.40
2023-05-13T15:23:30.405Z,18.30
2023-05-13T15:25:58.189Z,18.20
2023-05-13T15:28:24.860Z,18.30
2023-05-13T15:30:51.506Z,18.30
2023-05-13T15:33:21.084Z,18.40
2023-05-13T15:35:51.842Z,18.40
2023-05-13T15:38:18.910Z,18.40
2023-05-13T15:40:47.314Z,18.20
2023-05-13T15:43:13.972Z,18.00
2023-05-13T15:45:41.630Z,17.90
2023-05-13T15:48:08.242Z,17.80
2023-05-13T15:50:35.017Z,17.70
2023-05-13T15:53:01.655Z,17.70
2023-05-13T15:55:28.220Z,17.60
2023-05-13T15:58:14.051Z,17.50
2023-05-13T16:00:40.741Z,17.10
2023-05-13T16:03:07.438Z,17.10
2023-05-13T16:05:36.362Z,16.80
2023-05-13T16:08:03.039Z,16.70
2023-05-13T16:10:29.852Z,16.50
2023-05-13T16:12:56.416Z,16.50
2023-05-13T16:15:23.083Z,16.30
2023-05-13T16:17:49.741Z,16.10
2023-05-13T16:20:16.394Z,15.90
2023-05-13T16:22:43.460Z,15.80
2023-05-13T16:25:10.176Z,15.80
2023-05-13T16:27:36.806Z,16.00
2023-05-13T16:30:03.509Z,15.90
2023-05-13T16:32:30.296Z,15.90
2023-05-13T16:34:57.025Z,15.80
2023-05-13T16:37:23.642Z,15.60
2023-05-13T16:39:50.286Z,15.60
2023-05-13T16:42:17.251Z,15.50
2023-05-13T16:44:43.866Z,15.40
2023-05-13T16:47:10.580Z,15.40
2023-05-13T16:49:37.207Z,15.30
2023-05-13T16:52:03.836Z,15.20
2023-05-13T16:54:30.529Z,15.20
2023-05-13T16:56:57.230Z,15.20
2023-05-13T16:59:23.958Z,15.30
2023-05-13T17:01:51.354Z,15.20
2023-05-13T17:04:18.052Z,15.00
2023-05-13T17:06:44.689Z,15.00
2023-05-13T17:09:11.330Z,14.70
2023-05-13T17:11:38.245Z,14.70
2023-05-13T17:14:04.905Z,14.70
2023-05-13T17:16:31.502Z,14.70
2023-05-13T17:18:59.163Z,14.90
2023-05-13T17:21:26.101Z,14.90
2023-05-13T17:23:52.770Z,14.70
2023-05-13T17:26:19.495Z,14.80
2023-05-13T17:28:46.330Z,14.70
2023-05-13T17:31:13.020Z,14.80
2023-05-13T17:33:39.782Z,14.80
2023-05-13T17:36:06.387Z,14.80
2023-05-13T17:38:32.989Z,14.70
2023-05-13T17:40:59.666Z,14.60
2023-05-13T17:43:26.985Z,14.60
2023-05-13T17:45:53.754Z,14.60
2023-05-13T17:48:20.437Z,14.50
2023-05-13T17:50:47.216Z,14.40
2023-05-13T17:53:13.864Z,14.40
2023-05-13T17:55:40.534Z,14.30
2023-05-13T17:58:07.144Z,14.30
2023-05-13T18:00:33.720Z,14.30
2023-05-13T18:03:00.470Z,14.20
2023-05-13T18:05:27.104Z,14.20
2023-05-13T18:07:54.892Z,14.20
2023-05-13T18:10:21.718Z,14.20
2023-05-13T18:12:48.455Z,14.00
2023-05-13T18:15:15.021Z,13.90
2023-05-13T18:17:41.658Z,13.80
2023-05-13T18:20:08.319Z,13.90
2023-05-13T18:22:35.049Z,13.70
2023-05-13T18:25:01.775Z,13.80
2023-05-13T18:27:28.421Z,13.70
2023-05-13T18:29:54.977Z,13.60
2023-05-13T18:32:21.624Z,13.50
2023-05-13T18:34:48.273Z,13.50
2023-05-13T18:37:15.109Z,13.40
2023-05-13T18:39:43.471Z,13.30
2023-05-13T18:42:10.110Z,13.40
2023-05-13T18:44:36.689Z,13.30
2023-05-13T18:47:03.301Z,13.30
2023-05-13T18:49:30.952Z,13.30
2023-05-13T18:51:57.587Z,13.30
2023-05-13T18:54:27.565Z,13.40
2023-05-13T18:56:54.295Z,13.30
2023-05-13T18:59:20.915Z,13.30
2023-05-13T19:01:47.705Z,13.30
2023-05-13T19:04:15.320Z,13.30
2023-05-13T19:06:42.112Z,13.30
2023-05-13T19:09:08.737Z,13.40
2023-05-13T19:11:35.431Z,13.30
2023-05-13T19:14:02.459Z,13.30
2023-05-13T19:16:29.099Z,13.20
2023-05-13T19:18:55.782Z,12.90
2023-05-13T19:21:23.520Z,12.90
2023-05-13T19:23:50.530Z,12.90
2023-05-13T19:26:17.145Z,13.00
2023-05-13T19:28:44.361Z,13.00
2023-05-13T19:31:10.955Z,13.00
2023-05-13T19:33:37.784Z,12.90
2023-05-13T19:36:04.436Z,12.90
2023-05-13T19:38:31.138Z,13.00
2023-05-13T19:40:57.716Z,13.00
2023-05-13T19:43:24.332Z,12.80
2023-05-13T19:45:50.975Z,12.80
2023-05-13T19:48:17.635Z,12.80
2023-05-13T19:50:44.217Z,12.80
2023-05-13T19:53:11.506Z,12.90
2023-05-13T19:55:38.218Z,12.90
2023-05-13T19:58:04.813Z,12.90
2023-05-13T20:00:31.389Z,12.80
2023-05-13T20:02:58.381Z,12.80
2023-05-13T20:05:25.019Z,12.70
2023-05-13T20:07:51.611Z,12.70
2023-05-13T20:10:18.296Z,12.70
2023-05-13T20:12:44.895Z,12.70
2023-05-13T20:15:11.612Z,12.70
2023-05-13T20:17:38.349Z,12.70
2023-05-13T20:20:05.195Z,12.60
2023-05-13T20:22:31.913Z,12.60
2023-05-13T20:24:59.019Z,12.60
2023-05-13T20:27:25.810Z,12.50
2023-05-13T20:29:52.419Z,12.50
2023-05-13T20:32:24.349Z,12.50
2023-05-13T20:34:52.183Z,12.50
2023-05-13T20:37:19.745Z,12.50
2023-05-13T20:39:47.818Z,12.40
2023-05-13T20:42:14.390Z,12.30
2023-05-13T20:44:41.153Z,12.30
2023-05-13T20:47:08.243Z,12.30
2023-05-13T20:49:34.809Z,12.30
2023-05-13T20:52:02.549Z,12.30
2023-05-13T20:54:29.220Z,12.30
2023-05-13T20:56:55.882Z,12.30
2023-05-13T20:59:22.524Z,12.40
2023-05-13T21:01:49.284Z,12.30
2023-05-13T21:04:16.130Z,12.20
2023-05-13T21:06:42.857Z,12.10
2023-05-13T21:09:09.556Z,12.00
2023-05-13T21:11:36.254Z,12.00
2023-05-13T21:14:02.870Z,12.00
2023-05-13T21:16:29.600Z,12.00
2023-05-13T21:18:56.318Z,12.00
2023-05-13T21:21:22.991Z,12.00
2023-05-13T21:23:50.056Z,12.00
2023-05-13T21:26:16.694Z,12.00
2023-05-13T21:28:43.325Z,11.90
2023-05-13T21:31:10.443Z,11.90
2023-05-13T21:33:37.409Z,11.80
2023-05-13T21:36:04.048Z,11.80
2023-05-13T21:38:30.796Z,11.90
2023-05-13T21:40:57.542Z,11.90
2023-05-13T21:43:24.178Z,12.00
2023-05-13T21:45:50.788Z,12.00
2023-05-13T21:48:17.555Z,11.90
2023-05-13T21:50:44.160Z,11.80
2023-05-13T21:53:10.880Z,11.80
2023-05-13T21:55:37.513Z,11.70
2023-05-13T21:58:04.153Z,11.70
2023-05-13T22:00:31.584Z,11.60
2023-05-13T22:03:00.495Z,11.60
2023-05-13T22:05:27.323Z,11.60
2023-05-13T22:07:54.078Z,11.60
2023-05-13T22:10:20.793Z,11.50
2023-05-13T22:12:48.110Z,11.50
2023-05-13T22:15:14.728Z,11.50
2023-05-13T22:17:41.606Z,11.50
2023-05-13T22:20:08.423Z,11.50
2023-05-13T22:22:35.270Z,11.50
2023-05-13T22:25:03.279Z,11.60
2023-05-13T22:27:29.994Z,11.60
2023-05-13T22:29:56.863Z,11.70
2023-05-13T22:32:23.512Z,11.60
2023-05-13T22:34:50.253Z,11.60
2023-05-13T22:37:16.848Z,11.60
2023-05-13T22:39:43.426Z,11.60
2023-05-13T22:42:10.094Z,11.50
2023-05-13T22:44:36.726Z,11.40
2023-05-13T22:47:04.188Z,11.30
2023-05-13T22:49:30.880Z,11.30
2023-05-13T22:51:57.487Z,11.40
2023-05-13T22:54:24.202Z,11.40
2023-05-13T22:56:50.841Z,11.40
2023-05-13T22:59:17.421Z,11.30
2023-05-13T23:01:44.237Z,11.30
2023-05-13T23:04:10.971Z,11.30
2023-05-13T23:06:37.660Z,11.30
2023-05-13T23:09:04.262Z,11.30
2023-05-13T23:11:30.983Z,11.30
2023-05-13T23:13:57.585Z,11.30
2023-05-13T23:16:24.228Z,11.30
2023-05-13T23:18:51.022Z,11.30
2023-05-13T23:21:17.683Z,11.30
2023-05-13T23:23:44.328Z,11.30
2023-05-13T23:26:10.944Z,11.20
2023-05-13T23:28:37.545Z,11.10
2023-05-13T23:31:04.189Z,11.10
2023-05-13T23:33:30.854Z,11.10
2023-05-13T23:35:57.484Z,11.20
2023-05-13T23:38:24.047Z,11.10
2023-05-13T23:40:50.686Z,11.00
2023-05-13T23:43:17.263Z,10.90
2023-05-13T23:45:43.927Z,10.90
2023-05-13T23:48:10.592Z,10.90
2023-05-13T23:50:37.361Z,11.00
2023-05-13T23:53:04.008Z,11.00
2023-05-13T23:55:30.597Z,11.00
2023-05-13T23:57:57.192Z,10.90
